Nearby METAR Reports

 

KSJC - San Jose, California, USA
Distance from station: NE 14km
Updated: 16/01/2021 11:53
Partly cloudy
Partly cloudy
 Wind from varies
Wind: varies 7 km/h
Temperature: 18°C
Dew Point: 7°C
Humidity: 49%
Barometer: 1022 hPa
Clouds: Partly cloudy
Visibility: 16 km
Cloud details: Partly cloudy 3353 m
2021/01/16 19:53 KSJC 161953Z VRB04KT 10SM SCT110 18/07 A3018 RMK AO2 SLP218 T01780072
KNUQ - Moffett Nas/Mtn, California, USA
Distance from station: N 14km
Updated: 16/01/2021 12:35
Clear
Clear
 Wind from N
Wind: N 9 km/h
Temperature: 18°C
Dew Point: 9°C
Humidity: 56%
Barometer: 1021.3 hPa
Clouds: Clear
Visibility: 16 km
2021/01/16 20:35 KNUQ 162035Z AUTO 36005KT 10SM CLR 18/09 A3016 RMK AO2
 
KPAO - Palo Alto, California, USA
Distance from station: NNW 23km
Updated: 16/01/2021 11:47
Clear
Clear
 Wind from varies
Wind: varies 7 km/h
Temperature: 15°C
Dew Point: 9°C
Humidity: 68%
Barometer: 1022 hPa
Clouds: Clear
Visibility: 16 km
2021/01/16 19:47 KPAO 161947Z VRB04KT 10SM SKC 15/09 A3018
KRHV - San Jose/Reid, California, USA
Distance from station: ENE 19km
Updated: 16/01/2021 11:47
Clear
Clear
 Wind from calm
Wind: Calm
Temperature: 18°C
Dew Point: 7°C
Humidity: 49%
Barometer: 1022.4 hPa
Clouds: Clear
Visibility: 16 km
2021/01/16 19:47 KRHV 161947Z 00000KT 10SM SKC 18/07 A3019
 
KOAK - Oakland, California, USA
Distance from station: NNW 50km
Updated: 16/01/2021 11:53
Partly cloudy
Partly cloudy
 Wind from WNW
Wind: WNW 9 km/h
Temperature: 18°C
Dew Point: 11°C
Humidity: 64%
Barometer: 1022 hPa
Clouds: Partly cloudy
Visibility: 14 km
Cloud details: Few Clouds 5486 m
Partly cloudy 6096 m
2021/01/16 19:53 KOAK 161953Z 30005KT 9SM FEW180 SCT200 18/11 A3018 RMK AO2 SLP220 T01830106
KSQL - San Carlos Airpo, California, USA
Distance from station: NW 34km
Updated: 16/01/2021 12:47
Partly cloudy
Partly cloudy
 Wind from varies
Wind: varies 6 km/h
Temperature: 18°C
Dew Point: 11°C
Humidity: 64%
Barometer: 1021.3 hPa
Clouds: Partly cloudy
Visibility: 16 km
Cloud details: Partly cloudy 6096 m
2021/01/16 20:47 KSQL 162047Z VRB03KT 10SM SCT200 18/11 A3016
 
KSFO - San Francisco, California, USA
Distance from station: NW 49km
Updated: 16/01/2021 11:56
Partly cloudy
Partly cloudy
 Wind from calm
Wind: Calm
Temperature: 16°C
Dew Point: 11°C
Humidity: 72%
Barometer: 1022 hPa
Clouds: Partly cloudy
Visibility: 16 km
Cloud details: Partly cloudy 6096 m
2021/01/16 19:56 KSFO 161956Z 00000KT 10SM SCT200 16/11 A3018 RMK AO2 SLP218 T01560106
KE16 - San Martin, California, USA
Distance from station: ESE 43km
Updated: 16/01/2021 12:35
Clear
Clear
 Wind from NNW
Wind: NNW 19 km/h
Temperature: 21°C
Dew Point: 7°C
Humidity: 40%
Barometer: 1021.3 hPa
Clouds: Clear
Visibility: 16 km
2021/01/16 20:35 KE16 162035Z AUTO 33010KT 10SM CLR 21/07 A3016 RMK AO2
 
KWVI - Watsonville, California, USA
Distance from station: SSE 44km
Updated: 16/01/2021 11:53
Clear
Clear
 Wind from calm
Wind: Calm
Temperature: 21°C
Dew Point: 8°C
Humidity: 43%
Barometer: 1021.7 hPa
Clouds: Clear
Visibility: 16 km
2021/01/16 19:53 KWVI 161953Z AUTO 00000KT 10SM CLR 21/08 A3017 RMK AO2 SLP214 T02110083
KHAF - Half Moon Bay, California, USA
Distance from station: WNW 50km
Updated: 16/01/2021 12:35
Mist, Overcast
Mist, Overcast
 Wind from NNW
Wind: NNW 28 km/h
Temperature: 12°C
Dew Point: 10°C
Humidity: 88%
Barometer: 1021.7 hPa
Summary: Mist
Clouds: Overcast
Visibility: 2 km
Cloud details: Overcast 91 m
2021/01/16 20:35 KHAF 162035Z AUTO 33015KT 1 1/4SM BR OVC003 12/10 A3017 RMK AO2
 
KHWD - Hayward, California, USA
Distance from station: N 44km
Updated: 16/01/2021 11:54
Clear
Clear
 Wind from W
Wind: W 6 km/h
Temperature: 17°C
Dew Point: 9°C
Humidity: 59%
Barometer: 1022 hPa
Clouds: Clear
Visibility: 16 km
2021/01/16 19:54 KHWD 161954Z 26003KT 10SM CLR 17/09 A3018 RMK AO2 SLP228 T01720094
KLVK - Livermore, California, USA
Distance from station: NNE 51km
Updated: 16/01/2021 11:53
Clear
Clear
 Wind from W
Wind: W 6 km/h
Temperature: 20°C
Dew Point: 6°C
Humidity: 40%
Barometer: 1022 hPa
Clouds: Clear
Visibility: 16 km
2021/01/16 19:53 KLVK 161953Z 26003KT 10SM CLR 20/06 A3018 RMK AO2 SLP216 T02000056